createdAt,value
2018-08-03T00:00:16.802Z,8.67
2018-08-03T00:02:45.080Z,8.90
2018-08-03T00:05:13.332Z,8.17
2018-08-03T00:07:41.593Z,8.23
2018-08-03T00:10:09.890Z,8.13
2018-08-03T00:12:38.101Z,9.40
2018-08-03T00:15:07.357Z,8.50
2018-08-03T00:17:35.726Z,8.13
2018-08-03T00:20:05.125Z,11.83
2018-08-03T00:22:33.397Z,9.20
2018-08-03T00:25:01.678Z,8.70
2018-08-03T00:27:29.965Z,10.40
2018-08-03T00:29:58.220Z,10.40
2018-08-03T00:32:26.930Z,11.30
2018-08-03T00:34:55.185Z,10.37
2018-08-03T00:37:23.453Z,10.80
2018-08-03T00:39:51.729Z,10.13
2018-08-03T00:42:19.945Z,11.10
2018-08-03T00:44:48.252Z,9.80
2018-08-03T00:47:16.596Z,10.20
2018-08-03T00:49:45.187Z,10.00
2018-08-03T00:52:13.212Z,12.90
2018-08-03T00:54:41.489Z,11.83
2018-08-03T00:57:09.955Z,10.87
2018-08-03T00:59:38.257Z,10.23
2018-08-03T01:02:06.648Z,11.83
2018-08-03T01:04:34.915Z,10.30
2018-08-03T01:07:03.454Z,9.67
2018-08-03T01:09:31.703Z,9.00
2018-08-03T01:11:59.921Z,7.73
2018-08-03T01:14:28.278Z,8.80
2018-08-03T01:16:56.502Z,10.00
2018-08-03T01:19:24.818Z,10.50
2018-08-03T01:21:53.094Z,8.97
2018-08-03T01:24:21.414Z,9.50
2018-08-03T01:26:49.652Z,9.83
2018-08-03T01:29:17.948Z,10.03
2018-08-03T01:31:46.241Z,9.10
2018-08-03T01:34:14.646Z,11.07
2018-08-03T01:36:42.988Z,11.13
2018-08-03T01:39:11.298Z,12.40
2018-08-03T01:41:39.637Z,14.10
2018-08-03T01:44:07.927Z,15.00
2018-08-03T01:46:36.208Z,15.97
2018-08-03T01:49:04.477Z,14.23
2018-08-03T01:51:32.713Z,13.53
2018-08-03T01:54:00.982Z,11.13
2018-08-03T01:56:29.201Z,13.27
2018-08-03T01:58:57.466Z,12.10
2018-08-03T02:01:25.738Z,15.70
2018-08-03T02:03:54.375Z,13.90
2018-08-03T02:06:22.743Z,12.17
2018-08-03T02:08:51.865Z,13.37
2018-08-03T02:11:20.185Z,12.93
2018-08-03T02:13:48.445Z,13.03
2018-08-03T02:16:16.750Z,12.50
2018-08-03T02:18:44.970Z,14.80
2018-08-03T02:21:13.227Z,14.07
2018-08-03T02:23:41.457Z,13.37
2018-08-03T02:26:09.779Z,15.17
2018-08-03T02:28:38.198Z,13.10
2018-08-03T02:31:06.563Z,14.33
2018-08-03T02:33:34.793Z,13.10
2018-08-03T02:36:03.130Z,13.97
2018-08-03T02:38:31.710Z,13.43
2018-08-03T02:41:00.002Z,13.03
2018-08-03T02:43:28.297Z,13.27
2018-08-03T02:45:56.532Z,12.40
2018-08-03T02:48:24.782Z,14.10
2018-08-03T02:50:53.043Z,13.47
2018-08-03T02:53:21.321Z,13.37
2018-08-03T02:55:49.886Z,15.63
2018-08-03T02:58:18.167Z,13.90
2018-08-03T03:00:46.479Z,13.53
2018-08-03T03:03:14.766Z,15.40
2018-08-03T03:05:43.028Z,14.27
2018-08-03T03:08:11.281Z,14.43
2018-08-03T03:10:39.534Z,15.23
2018-08-03T03:13:07.785Z,14.70
2018-08-03T03:15:36.217Z,15.20
2018-08-03T03:18:04.663Z,15.10
2018-08-03T03:20:33.219Z,14.60
2018-08-03T03:23:01.556Z,15.43
2018-08-03T03:25:29.841Z,14.77
2018-08-03T03:27:58.153Z,14.60
2018-08-03T03:30:26.406Z,17.93
2018-08-03T03:32:54.682Z,17.90
2018-08-03T03:35:23.011Z,14.50
2018-08-03T03:37:51.301Z,17.70
2018-08-03T03:40:19.545Z,16.20
2018-08-03T03:42:47.809Z,18.60
2018-08-03T03:45:16.136Z,17.60
2018-08-03T03:47:44.389Z,16.27
2018-08-03T03:50:12.705Z,15.10
2018-08-03T03:52:41.044Z,19.07
2018-08-03T03:55:09.284Z,18.87
2018-08-03T03:57:37.517Z,17.17
2018-08-03T04:00:06.983Z,19.80
2018-08-03T04:02:35.709Z,16.47
2018-08-03T04:05:04.241Z,17.70
2018-08-03T04:07:32.550Z,16.47
2018-08-03T04:10:00.822Z,18.70
2018-08-03T04:12:29.073Z,16.90
2018-08-03T04:14:57.338Z,16.77
2018-08-03T04:17:25.590Z,17.80
2018-08-03T04:19:54.250Z,25.13
2018-08-03T04:22:22.601Z,18.33
2018-08-03T04:24:51.081Z,18.33
2018-08-03T04:27:19.409Z,18.30
2018-08-03T04:29:47.613Z,17.63
2018-08-03T04:32:15.958Z,20.40
2018-08-03T04:34:44.189Z,17.27
2018-08-03T04:37:12.462Z,19.60
2018-08-03T04:39:40.760Z,18.83
2018-08-03T04:42:09.035Z,19.20
2018-08-03T04:44:37.323Z,18.77
2018-08-03T04:47:05.613Z,18.07
2018-08-03T04:49:33.925Z,19.60
2018-08-03T04:52:02.195Z,19.80
2018-08-03T04:54:30.566Z,19.83
2018-08-03T04:56:58.857Z,22.03
2018-08-03T04:59:27.134Z,18.03
2018-08-03T05:01:55.492Z,22.47
2018-08-03T05:04:23.843Z,17.47
2018-08-03T05:06:52.158Z,22.57
2018-08-03T05:09:20.538Z,23.30
2018-08-03T05:11:48.801Z,18.80
2018-08-03T05:14:17.115Z,18.03
2018-08-03T05:16:45.469Z,17.47
2018-08-03T05:19:13.752Z,16.50
2018-08-03T05:21:42.080Z,16.23
2018-08-03T05:24:10.345Z,16.30
2018-08-03T05:26:38.562Z,15.33
2018-08-03T05:29:06.938Z,15.50
2018-08-03T05:31:35.241Z,14.70
2018-08-03T05:34:03.657Z,14.37
2018-08-03T05:36:31.962Z,14.93
2018-08-03T05:39:00.219Z,15.67
2018-08-03T05:41:28.528Z,25.40
2018-08-03T05:43:56.774Z,15.60
2018-08-03T05:46:25.043Z,14.13
2018-08-03T05:48:53.302Z,15.90
2018-08-03T05:51:21.568Z,14.80
2018-08-03T05:53:49.947Z,16.37
2018-08-03T05:56:18.311Z,16.33
2018-08-03T05:58:46.707Z,15.63
2018-08-03T06:01:15.017Z,16.30
2018-08-03T06:03:43.269Z,17.10
2018-08-03T06:06:11.953Z,16.33
2018-08-03T06:08:40.237Z,17.63
2018-08-03T06:11:08.684Z,15.57
2018-08-03T06:13:37.019Z,17.30
2018-08-03T06:16:05.285Z,15.70
2018-08-03T06:18:33.594Z,16.10
2018-08-03T06:21:01.992Z,14.70
2018-08-03T06:23:30.597Z,15.57
2018-08-03T06:25:58.868Z,15.83
2018-08-03T06:28:27.154Z,15.20
2018-08-03T06:30:55.196Z,16.93
2018-08-03T06:33:23.472Z,16.70
2018-08-03T06:35:51.822Z,19.63
2018-08-03T06:38:20.146Z,14.70
2018-08-03T06:40:48.477Z,16.47
2018-08-03T06:43:16.778Z,13.80
2018-08-03T06:45:45.046Z,16.03
2018-08-03T06:48:13.325Z,14.13
2018-08-03T06:50:41.606Z,14.80
2018-08-03T06:53:09.907Z,13.90
2018-08-03T06:55:38.297Z,14.83
2018-08-03T06:58:06.280Z,12.47
2018-08-03T07:00:34.612Z,9.97
2018-08-03T07:03:02.905Z,8.10
2018-08-03T07:05:31.241Z,10.30
2018-08-03T07:07:59.586Z,8.93
2018-08-03T07:10:27.865Z,7.80
2018-08-03T07:12:56.171Z,9.03
2018-08-03T07:15:24.524Z,7.73
2018-08-03T07:17:52.793Z,8.53
2018-08-03T07:20:21.244Z,7.43
2018-08-03T07:22:49.451Z,8.43
2018-08-03T07:25:17.828Z,7.37
2018-08-03T07:27:46.172Z,7.40
2018-08-03T07:30:14.430Z,8.10
2018-08-03T07:32:42.679Z,6.40
2018-08-03T07:35:11.046Z,8.60
2018-08-03T07:37:39.346Z,6.87
2018-08-03T07:40:07.647Z,8.93
2018-08-03T07:42:35.917Z,7.87
2018-08-03T07:45:04.485Z,6.60
2018-08-03T07:47:32.759Z,6.17
2018-08-03T07:50:01.010Z,6.17
2018-08-03T07:52:29.278Z,8.07
2018-08-03T07:54:57.532Z,7.20
2018-08-03T07:57:25.786Z,7.40
2018-08-03T07:59:53.989Z,7.57
2018-08-03T08:02:22.285Z,6.67
2018-08-03T08:04:50.594Z,6.77
2018-08-03T08:07:19.298Z,7.30
2018-08-03T08:09:47.590Z,10.90
2018-08-03T08:12:15.781Z,6.60
2018-08-03T08:14:44.029Z,6.97
2018-08-03T08:17:12.310Z,6.60
2018-08-03T08:19:40.547Z,6.33
2018-08-03T08:22:08.757Z,7.97
2018-08-03T08:24:37.065Z,8.20
2018-08-03T08:27:05.409Z,10.33
2018-08-03T08:29:33.629Z,6.87
2018-08-03T08:32:01.892Z,5.53
2018-08-03T08:34:30.101Z,9.13
2018-08-03T08:36:58.375Z,5.60
2018-08-03T08:39:26.624Z,6.37
2018-08-03T08:41:54.905Z,4.60
2018-08-03T08:44:23.238Z,4.93
2018-08-03T08:46:51.515Z,5.43
2018-08-03T08:49:19.894Z,9.90
2018-08-03T08:51:48.121Z,4.57
2018-08-03T08:54:16.397Z,6.37
2018-08-03T08:56:44.674Z,4.63
2018-08-03T08:59:12.944Z,4.07
2018-08-03T09:01:41.167Z,5.10
2018-08-03T09:04:09.517Z,4.17
2018-08-03T09:06:37.761Z,5.00
2018-08-03T09:09:08.314Z,7.20
2018-08-03T09:11:36.685Z,4.90
2018-08-03T09:14:05.034Z,3.57
2018-08-03T09:16:33.353Z,3.50
2018-08-03T09:19:01.581Z,3.17
2018-08-03T09:21:29.881Z,4.00
2018-08-03T09:23:58.185Z,2.77
2018-08-03T09:26:26.992Z,3.23
2018-08-03T09:28:55.353Z,4.37
2018-08-03T09:31:23.659Z,3.50
2018-08-03T09:33:52.615Z,3.70
2018-08-03T09:36:20.981Z,3.60
2018-08-03T09:38:49.229Z,3.70
2018-08-03T09:41:17.535Z,3.40
2018-08-03T09:43:45.834Z,4.07
2018-08-03T09:46:14.122Z,7.17
2018-08-03T09:48:42.339Z,4.37
2018-08-03T09:51:10.572Z,2.87
2018-08-03T09:53:38.856Z,2.97
2018-08-03T09:56:07.101Z,3.10
2018-08-03T09:58:35.337Z,3.40
2018-08-03T10:01:08.889Z,3.13
2018-08-03T10:03:37.190Z,2.87
2018-08-03T10:06:05.165Z,2.77
2018-08-03T10:08:33.654Z,3.13
2018-08-03T10:11:01.862Z,4.80
2018-08-03T10:13:30.085Z,5.57
2018-08-03T10:15:58.393Z,3.03
2018-08-03T10:18:26.647Z,4.90
2018-08-03T10:20:54.897Z,6.07
2018-08-03T10:23:23.154Z,4.73
2018-08-03T10:25:51.437Z,3.23
2018-08-03T10:28:19.907Z,2.80
2018-08-03T10:30:48.913Z,2.70
2018-08-03T10:33:17.169Z,2.90
2018-08-03T10:35:45.461Z,2.53
2018-08-03T10:38:14.159Z,2.90
2018-08-03T10:40:42.502Z,2.90
2018-08-03T10:43:10.899Z,4.10
2018-08-03T10:45:39.352Z,2.40
2018-08-03T10:48:07.936Z,3.53
2018-08-03T10:50:36.210Z,3.03
2018-08-03T10:53:04.825Z,3.87
2018-08-03T10:55:32.846Z,5.43
2018-08-03T10:58:01.228Z,4.30
2018-08-03T11:00:31.033Z,3.73
2018-08-03T11:02:59.824Z,5.87
2018-08-03T11:05:28.662Z,5.03
2018-08-03T11:07:57.017Z,2.90
2018-08-03T11:10:25.326Z,4.03
2018-08-03T11:12:53.867Z,2.90
2018-08-03T11:15:22.157Z,5.37
2018-08-03T11:17:51.077Z,5.00
2018-08-03T11:20:19.474Z,3.83
2018-08-03T11:22:47.851Z,6.20
2018-08-03T11:25:16.378Z,3.70
2018-08-03T11:27:44.745Z,7.60
2018-08-03T11:30:13.089Z,3.83
2018-08-03T11:32:41.774Z,2.63
2018-08-03T11:35:10.597Z,3.97
2018-08-03T11:37:38.925Z,3.50
2018-08-03T11:40:07.604Z,4.27
2018-08-03T11:42:35.921Z,3.37
2018-08-03T11:45:04.960Z,2.90
2018-08-03T11:47:33.251Z,5.03
2018-08-03T11:50:01.486Z,4.90
2018-08-03T11:52:29.775Z,4.37
2018-08-03T11:54:57.997Z,2.83
2018-08-03T11:57:26.305Z,3.63
2018-08-03T11:59:54.581Z,4.33
2018-08-03T12:02:22.870Z,5.40
2018-08-03T12:04:51.145Z,2.83
2018-08-03T12:07:19.521Z,2.40
2018-08-03T12:09:47.773Z,3.73
2018-08-03T12:12:16.065Z,3.13
2018-08-03T12:14:44.309Z,2.80
2018-08-03T12:17:12.588Z,3.10
2018-08-03T12:19:41.009Z,2.97
2018-08-03T12:22:09.333Z,5.50
2018-08-03T12:24:37.642Z,2.63
2018-08-03T12:27:06.047Z,2.90
2018-08-03T12:29:34.350Z,3.47
2018-08-03T12:32:02.750Z,3.43
2018-08-03T12:34:31.162Z,3.57
2018-08-03T12:36:59.514Z,4.90
2018-08-03T12:39:27.809Z,5.33
2018-08-03T12:41:56.039Z,9.67
2018-08-03T12:44:24.326Z,3.73
2018-08-03T12:46:52.602Z,4.50
2018-08-03T12:49:20.871Z,2.80
2018-08-03T12:51:49.198Z,3.70
2018-08-03T12:54:17.502Z,2.80
2018-08-03T12:56:45.885Z,3.33
2018-08-03T12:59:14.230Z,3.20
2018-08-03T13:01:42.500Z,3.10
2018-08-03T13:04:11.122Z,2.50
2018-08-03T13:06:39.349Z,2.43
2018-08-03T13:09:08.026Z,4.30
2018-08-03T13:11:36.329Z,2.67
2018-08-03T13:14:04.688Z,2.97
2018-08-03T13:16:32.980Z,5.13
2018-08-03T13:19:01.271Z,3.93
2018-08-03T13:21:36.817Z,9.00
2018-08-03T13:24:05.373Z,3.33
2018-08-03T13:26:33.653Z,3.60
2018-08-03T13:29:01.945Z,2.93
2018-08-03T13:31:30.801Z,4.60
2018-08-03T13:33:59.054Z,5.90
2018-08-03T13:36:29.686Z,5.83
2018-08-03T13:38:58.099Z,7.43
2018-08-03T13:41:26.077Z,9.10
2018-08-03T13:43:54.604Z,8.67
2018-08-03T13:46:22.861Z,9.30
2018-08-03T13:48:51.175Z,9.53
2018-08-03T13:51:19.984Z,10.33
2018-08-03T13:53:48.845Z,7.70
2018-08-03T13:56:18.013Z,5.13
2018-08-03T13:58:47.073Z,6.40
2018-08-03T14:01:26.718Z,5.97
2018-08-03T14:03:55.145Z,4.30
2018-08-03T14:06:23.381Z,6.70
2018-08-03T14:08:51.766Z,6.80
2018-08-03T14:11:20.396Z,7.47
2018-08-03T14:13:48.716Z,4.67
2018-08-03T14:16:17.034Z,4.57
2018-08-03T14:18:46.587Z,10.67
2018-08-03T14:21:14.893Z,5.93
2018-08-03T14:23:43.599Z,7.13
2018-08-03T14:26:11.873Z,5.33
2018-08-03T14:28:40.193Z,8.30
2018-08-03T14:31:09.040Z,5.30
2018-08-03T14:33:37.056Z,4.80
2018-08-03T14:36:05.401Z,8.03
2018-08-03T14:38:33.399Z,9.50
2018-08-03T14:41:01.663Z,4.63
2018-08-03T14:43:29.937Z,4.77
2018-08-03T14:45:58.961Z,4.87
2018-08-03T14:48:27.216Z,8.10
2018-08-03T14:50:55.942Z,4.40
2018-08-03T14:53:24.173Z,4.60
2018-08-03T14:55:52.397Z,3.23
2018-08-03T14:58:20.705Z,3.47
2018-08-03T15:00:48.953Z,4.03
2018-08-03T15:03:17.229Z,2.83
2018-08-03T15:05:45.551Z,4.40
2018-08-03T15:08:13.882Z,4.70
2018-08-03T15:10:42.229Z,3.70
2018-08-03T15:13:10.513Z,6.03
2018-08-03T15:15:38.810Z,6.20
2018-08-03T15:18:07.553Z,3.30
2018-08-03T15:20:35.857Z,3.57
2018-08-03T15:23:04.146Z,5.03
2018-08-03T15:25:32.184Z,3.43
2018-08-03T15:28:00.514Z,5.03
2018-08-03T15:30:28.836Z,3.60
2018-08-03T15:32:57.198Z,8.80
2018-08-03T15:35:25.573Z,2.63
2018-08-03T15:37:53.941Z,4.80
2018-08-03T15:40:22.194Z,3.80
2018-08-03T15:42:51.737Z,3.43
2018-08-03T15:45:20.023Z,2.60
2018-08-03T15:47:48.345Z,3.67
2018-08-03T15:50:16.717Z,6.93
2018-08-03T15:52:45.039Z,2.67
2018-08-03T15:55:13.555Z,6.50
2018-08-03T15:57:41.865Z,3.40
2018-08-03T16:00:10.585Z,2.97
2018-08-03T16:02:38.881Z,3.07
2018-08-03T16:05:07.782Z,4.67
2018-08-03T16:07:36.058Z,4.00
2018-08-03T16:10:04.533Z,2.17
2018-08-03T16:12:32.749Z,2.30
2018-08-03T16:15:00.990Z,3.40
2018-08-03T16:17:29.265Z,2.47
2018-08-03T16:19:57.569Z,2.37
2018-08-03T16:22:25.789Z,2.27
2018-08-03T16:24:54.274Z,2.83
2018-08-03T16:27:22.569Z,2.33
2018-08-03T16:29:50.882Z,3.20
2018-08-03T16:32:19.278Z,4.87
2018-08-03T16:34:47.633Z,2.30
2018-08-03T16:37:15.907Z,4.10
2018-08-03T16:39:44.189Z,3.73
2018-08-03T16:42:12.434Z,3.13
2018-08-03T16:44:40.756Z,2.03
2018-08-03T16:47:09.055Z,3.37
2018-08-03T16:49:37.320Z,3.07
2018-08-03T16:52:05.657Z,4.53
2018-08-03T16:54:33.688Z,2.30
2018-08-03T16:57:02.057Z,2.87
2018-08-03T16:59:30.252Z,3.10
2018-08-03T17:01:58.509Z,4.30
2018-08-03T17:04:26.719Z,3.07
2018-08-03T17:06:55.089Z,2.90
2018-08-03T17:09:23.855Z,2.93
2018-08-03T17:11:52.132Z,3.20
2018-08-03T17:14:20.373Z,3.67
2018-08-03T17:16:48.649Z,4.50
2018-08-03T17:19:16.877Z,3.50
2018-08-03T17:21:45.173Z,6.70
2018-08-03T17:24:13.442Z,2.70
2018-08-03T17:26:41.783Z,6.40
2018-08-03T17:29:10.247Z,1.97
2018-08-03T17:31:38.622Z,3.90
2018-08-03T17:34:07.106Z,1.70
2018-08-03T17:36:35.394Z,1.70
2018-08-03T17:39:05.851Z,1.87
2018-08-03T17:41:34.174Z,1.70
2018-08-03T17:44:02.514Z,2.00
2018-08-03T17:46:30.611Z,1.73
2018-08-03T17:48:58.954Z,3.43
2018-08-03T17:51:27.304Z,5.27
2018-08-03T17:53:55.686Z,2.90
2018-08-03T17:56:23.992Z,2.10
2018-08-03T17:58:52.327Z,2.70
2018-08-03T18:01:20.588Z,2.30
2018-08-03T18:03:49.237Z,2.47
2018-08-03T18:06:17.578Z,2.40
2018-08-03T18:08:45.881Z,2.27
2018-08-03T18:11:14.186Z,2.00
2018-08-03T18:13:42.437Z,1.77
2018-08-03T18:16:10.945Z,2.10
2018-08-03T18:18:39.234Z,1.77
2018-08-03T18:21:07.569Z,2.60
2018-08-03T18:23:35.829Z,1.73
2018-08-03T18:26:04.086Z,1.97
2018-08-03T18:28:32.329Z,3.63
2018-08-03T18:31:00.938Z,2.20
2018-08-03T18:33:29.170Z,2.10
2018-08-03T18:35:57.437Z,2.00
2018-08-03T18:38:25.761Z,1.60
2018-08-03T18:40:53.982Z,2.90
2018-08-03T18:43:22.264Z,2.63
2018-08-03T18:45:50.502Z,2.17
2018-08-03T18:48:18.823Z,2.00
2018-08-03T18:50:47.139Z,1.90
2018-08-03T18:53:15.485Z,2.23
2018-08-03T18:55:43.946Z,2.00
2018-08-03T18:58:12.234Z,4.70
2018-08-03T19:00:40.469Z,2.13
2018-08-03T19:03:08.885Z,1.97
2018-08-03T19:05:36.956Z,2.13
2018-08-03T19:08:05.776Z,2.90
2018-08-03T19:10:34.069Z,3.60
2018-08-03T19:13:02.591Z,3.33
2018-08-03T19:15:30.823Z,3.00
2018-08-03T19:17:59.137Z,2.10
2018-08-03T19:20:27.386Z,1.90
2018-08-03T19:22:55.699Z,3.83
2018-08-03T19:25:24.093Z,2.60
2018-08-03T19:27:52.353Z,2.47
2018-08-03T19:30:20.760Z,2.73
2018-08-03T19:32:49.094Z,2.30
2018-08-03T19:35:17.433Z,2.93
2018-08-03T19:37:45.829Z,2.30
2018-08-03T19:40:14.110Z,2.87
2018-08-03T19:42:42.371Z,3.90
2018-08-03T19:45:10.752Z,4.07
2018-08-03T19:47:38.973Z,2.53
2018-08-03T19:50:08.398Z,2.67
2018-08-03T19:52:36.759Z,5.30
2018-08-03T19:55:04.987Z,2.70
2018-08-03T19:57:33.346Z,2.80
2018-08-03T20:00:01.585Z,3.67
2018-08-03T20:02:29.865Z,4.47
2018-08-03T20:04:58.112Z,4.73
2018-08-03T20:07:26.402Z,3.70
2018-08-03T20:09:54.867Z,3.80
2018-08-03T20:12:23.168Z,3.17
2018-08-03T20:14:51.426Z,2.80
2018-08-03T20:17:19.817Z,4.30
2018-08-03T20:19:48.050Z,4.30
2018-08-03T20:22:18.067Z,7.27
2018-08-03T20:24:46.550Z,4.23
2018-08-03T20:27:15.409Z,3.67
2018-08-03T20:29:43.998Z,3.73
2018-08-03T20:32:12.413Z,3.50
2018-08-03T20:34:40.677Z,3.80
2018-08-03T20:37:09.005Z,4.27
2018-08-03T20:39:37.829Z,3.23
2018-08-03T20:42:06.325Z,4.20
2018-08-03T20:44:34.581Z,3.37
2018-08-03T20:47:02.877Z,4.60
2018-08-03T20:49:31.430Z,3.60
2018-08-03T20:51:59.741Z,4.00
2018-08-03T20:54:28.013Z,3.40
2018-08-03T20:56:56.330Z,4.67
2018-08-03T20:59:24.594Z,3.90
2018-08-03T21:01:52.943Z,4.20
2018-08-03T21:04:21.406Z,3.83
2018-08-03T21:06:49.785Z,4.83
2018-08-03T21:09:18.129Z,4.03
2018-08-03T21:11:46.473Z,4.70
2018-08-03T21:14:15.094Z,3.70
2018-08-03T21:16:43.439Z,3.70
2018-08-03T21:19:11.745Z,3.43
2018-08-03T21:21:40.815Z,3.57
2018-08-03T21:24:09.169Z,3.63
2018-08-03T21:26:37.541Z,4.80
2018-08-03T21:29:05.848Z,4.30
2018-08-03T21:31:34.089Z,4.50
2018-08-03T21:34:02.408Z,4.70
2018-08-03T21:36:30.636Z,4.70
2018-08-03T21:38:58.884Z,6.07
2018-08-03T21:41:27.201Z,5.43
2018-08-03T21:43:55.538Z,5.00
2018-08-03T21:46:23.736Z,5.50
2018-08-03T21:48:51.996Z,4.90
2018-08-03T21:51:20.337Z,4.53
2018-08-03T21:53:48.327Z,5.10
2018-08-03T21:56:16.605Z,4.80
2018-08-03T21:58:44.905Z,4.50
2018-08-03T22:01:13.944Z,4.23
2018-08-03T22:03:42.661Z,3.90
2018-08-03T22:06:10.894Z,3.50
2018-08-03T22:08:39.465Z,4.03
2018-08-03T22:11:07.686Z,4.07
2018-08-03T22:13:36.085Z,4.70
2018-08-03T22:16:04.655Z,4.20
2018-08-03T22:18:32.894Z,4.43
2018-08-03T22:21:01.326Z,5.73
2018-08-03T22:23:29.676Z,3.57
2018-08-03T22:25:58.148Z,6.23
2018-08-03T22:28:26.475Z,4.20
2018-08-03T22:30:54.685Z,4.03
2018-08-03T22:33:22.689Z,5.27
2018-08-03T22:35:51.068Z,5.00
2018-08-03T22:38:19.363Z,4.60
2018-08-03T22:40:47.888Z,6.10
2018-08-03T22:43:16.183Z,5.40
2018-08-03T22:45:44.449Z,5.00
2018-08-03T22:48:12.772Z,4.53
2018-08-03T22:50:41.032Z,4.03
2018-08-03T22:53:09.263Z,7.07
2018-08-03T22:55:37.660Z,5.30
2018-08-03T22:58:06.014Z,6.50
2018-08-03T23:00:34.398Z,4.83
2018-08-03T23:03:02.694Z,5.17
2018-08-03T23:05:30.969Z,4.80
2018-08-03T23:07:59.879Z,4.90
2018-08-03T23:10:28.121Z,5.10
2018-08-03T23:12:56.496Z,5.17
2018-08-03T23:15:24.877Z,5.40
2018-08-03T23:17:53.145Z,5.83
2018-08-03T23:20:21.393Z,5.77
2018-08-03T23:22:49.660Z,5.63
2018-08-03T23:25:17.929Z,5.60
2018-08-03T23:27:46.175Z,5.60
2018-08-03T23:30:14.463Z,6.27
2018-08-03T23:32:42.757Z,6.23
2018-08-03T23:35:11.037Z,6.40
2018-08-03T23:37:39.242Z,6.83
2018-08-03T23:40:07.533Z,6.60
2018-08-03T23:42:36.144Z,6.00
2018-08-03T23:45:04.528Z,6.00
2018-08-03T23:47:32.889Z,5.40
2018-08-03T23:50:01.149Z,7.10
2018-08-03T23:52:29.437Z,5.90
2018-08-03T23:54:57.729Z,4.93
2018-08-03T23:57:26.277Z,8.63
2018-08-03T23:59:54.553Z,5.20
